Time;durP1;ratioP1;P1;durP2;ratioP2;P2;SDS_P1;SDS_P2;PMS_P1;PMS_P2;Temp;Humidity;BMP_temperature;BMP_pressure;BME280_temperature;BME280_humidity;BME280_pressure;Samples;Min_cycle;Max_cycle;Signal;HPM_P1;HPM_P2
2023/04/21 00:01:28;;;;;;;16.80;11.10;;;;;;;;;;4988628;28;20215;-69
2023/04/21 00:03:54;;;;;;;17.10;11.10;;;;;;;;;;4976805;28;20198;-68
2023/04/21 00:06:21;;;;;;;22.70;12.10;;;;;;;;;;4985537;28;20184;-68
2023/04/21 00:08:46;;;;;;;17.90;11.47;;;;;;;;;;4999357;28;20219;-68
2023/04/21 00:11:13;;;;;;;20.00;11.63;;;;;;;;;;4968792;28;20211;-69
2023/04/21 00:13:39;;;;;;;19.50;10.87;;;;;;;;;;4993828;28;20215;-68
2023/04/21 00:16:04;;;;;;;17.87;11.13;;;;;;;;;;4986755;28;20785;-69
2023/04/21 00:18:29;;;;;;;22.00;11.93;;;;;;;;;;4992806;28;20705;-68
2023/04/21 00:20:55;;;;;;;17.33;11.67;;;;;;;;;;4990536;28;20187;-68
2023/04/21 00:23:20;;;;;;;21.80;12.53;;;;;;;;;;4992272;28;20192;-68
2023/04/21 00:25:45;;;;;;;19.83;11.33;;;;;;;;;;4991188;28;20187;-69
2023/04/21 00:28:10;;;;;;;18.10;11.47;;;;;;;;;;4989154;28;20254;-69
2023/04/21 00:30:36;;;;;;;18.73;11.50;;;;;;;;;;4983615;28;20234;-69
2023/04/21 00:33:01;;;;;;;17.10;12.23;;;;;;;;;;4990454;28;20199;-69
2023/04/21 00:35:26;;;;;;;21.73;12.20;;;;;;;;;;4990924;28;20203;-69
2023/04/21 00:37:51;;;;;;;16.97;10.83;;;;;;;;;;4992424;28;20250;-69
2023/04/21 00:40:16;;;;;;;23.40;12.40;;;;;;;;;;4988783;28;20559;-69
2023/04/21 00:42:42;;;;;;;23.67;13.30;;;;;;;;;;4994604;28;20205;-69
2023/04/21 00:45:07;;;;;;;19.43;11.83;;;;;;;;;;4989105;28;20290;-69
2023/04/21 00:47:32;;;;;;;18.27;11.17;;;;;;;;;;4988509;28;20554;-69
2023/04/21 00:49:58;;;;;;;20.27;12.50;;;;;;;;;;4995388;28;20180;-69
2023/04/21 00:52:24;;;;;;;20.63;12.00;;;;;;;;;;4996322;28;20187;-69
2023/04/21 00:54:49;;;;;;;20.07;12.83;;;;;;;;;;4991479;28;20184;-69
2023/04/21 00:57:15;;;;;;;23.83;13.33;;;;;;;;;;4989381;28;20215;-69
2023/04/21 00:59:40;;;;;;;24.17;13.23;;;;;;;;;;4991901;28;20184;-69
2023/04/21 01:02:06;;;;;;;22.73;13.10;;;;;;;;;;4976433;28;20262;-69
2023/04/21 01:04:35;;;;;;;19.17;12.77;;;;;;;;;;4993128;28;20631;-69
2023/04/21 01:07:02;;;;;;;19.53;12.63;;;;;;;;;;4992645;28;20226;-69
2023/04/21 01:09:27;;;;;;;25.27;12.83;;;;;;;;;;4981034;28;20184;-69
2023/04/21 01:12:02;;;;;;;23.00;14.53;;;;;;;;;;4989039;28;20564;-69
2023/04/21 01:14:27;;;;;;;18.77;11.77;;;;;;;;;;4991999;28;20712;-69
2023/04/21 01:16:52;;;;;;;23.23;12.93;;;;;;;;;;4991537;28;20201;-69
2023/04/21 01:19:19;;;;;;;23.17;13.00;;;;;;;;;;4991960;28;20175;-68
2023/04/21 01:21:44;;;;;;;22.33;13.47;;;;;;;;;;4989289;28;20183;-68
2023/04/21 01:24:10;;;;;;;21.20;12.77;;;;;;;;;;4991527;28;20688;-68
2023/04/21 01:26:36;;;;;;;23.73;13.00;;;;;;;;;;4990199;28;20184;-68
2023/04/21 01:29:01;;;;;;;22.43;14.13;;;;;;;;;;4992762;28;20182;-68
2023/04/21 01:31:26;;;;;;;24.20;13.60;;;;;;;;;;4984400;28;20628;-69
2023/04/21 01:33:51;;;;;;;24.23;13.63;;;;;;;;;;4991039;28;20212;-68
2023/04/21 01:36:16;;;;;;;20.80;12.93;;;;;;;;;;4992528;28;20207;-68
2023/04/21 01:38:42;;;;;;;26.93;14.43;;;;;;;;;;4985696;28;20642;-68
2023/04/21 01:41:07;;;;;;;23.80;13.23;;;;;;;;;;4990737;28;20468;-68
2023/04/21 01:43:32;;;;;;;23.33;13.40;;;;;;;;;;4991794;28;20287;-68
2023/04/21 01:45:58;;;;;;;25.37;14.33;;;;;;;;;;4991477;28;20218;-68
2023/04/21 01:48:23;;;;;;;25.33;14.60;;;;;;;;;;4992378;28;20571;-68
2023/04/21 01:50:48;;;;;;;25.90;14.57;;;;;;;;;;4990362;28;20590;-68
2023/04/21 01:53:13;;;;;;;27.97;15.83;;;;;;;;;;4992514;28;20203;-68
2023/04/21 01:55:39;;;;;;;24.23;14.93;;;;;;;;;;4987910;28;20261;-68
2023/04/21 01:58:04;;;;;;;26.40;15.07;;;;;;;;;;4991738;28;20187;-69
2023/04/21 02:00:29;;;;;;;24.57;14.30;;;;;;;;;;4990506;28;20183;-68
2023/04/21 02:02:54;;;;;;;27.83;15.17;;;;;;;;;;4990000;28;20196;-68
2023/04/21 02:05:20;;;;;;;22.93;13.67;;;;;;;;;;4991619;28;20167;-68
2023/04/21 02:07:45;;;;;;;24.57;14.77;;;;;;;;;;4992337;28;20195;-68
2023/04/21 02:10:10;;;;;;;26.17;14.63;;;;;;;;;;4989636;28;20221;-69
2023/04/21 02:12:35;;;;;;;24.67;15.10;;;;;;;;;;4990060;28;20294;-68
2023/04/21 02:15:01;;;;;;;25.47;14.43;;;;;;;;;;4990540;28;20188;-68
2023/04/21 02:17:26;;;;;;;28.80;16.13;;;;;;;;;;4990711;28;20712;-69
2023/04/21 02:19:51;;;;;;;24.00;15.13;;;;;;;;;;4989448;28;20665;-69
2023/04/21 02:22:16;;;;;;;27.43;14.60;;;;;;;;;;4988529;28;20202;-69
2023/04/21 02:24:41;;;;;;;26.80;15.43;;;;;;;;;;4991725;28;20208;-69
2023/04/21 02:27:07;;;;;;;26.57;15.87;;;;;;;;;;4988553;28;20195;-69
2023/04/21 02:29:32;;;;;;;28.23;15.13;;;;;;;;;;4973609;28;20245;-69
2023/04/21 02:31:57;;;;;;;33.03;16.73;;;;;;;;;;4982737;28;20898;-69
2023/04/21 02:34:22;;;;;;;29.77;16.23;;;;;;;;;;4989023;28;20214;-69
2023/04/21 02:36:47;;;;;;;30.70;17.30;;;;;;;;;;4991160;28;20218;-69
2023/04/21 02:39:13;;;;;;;29.33;15.70;;;;;;;;;;4990981;28;20175;-69
2023/04/21 02:41:38;;;;;;;29.40;15.97;;;;;;;;;;4990424;28;20257;-69
2023/04/21 02:44:03;;;;;;;31.33;16.90;;;;;;;;;;4973940;28;20192;-69
2023/04/21 02:46:29;;;;;;;28.03;16.90;;;;;;;;;;4989294;28;20179;-69
2023/04/21 02:48:54;;;;;;;32.27;17.30;;;;;;;;;;4972950;28;20184;-69
2023/04/21 02:51:20;;;;;;;29.30;17.03;;;;;;;;;;4984515;28;20634;-68
2023/04/21 02:53:45;;;;;;;34.13;17.00;;;;;;;;;;4991193;28;20196;-68
2023/04/21 02:56:10;;;;;;;31.93;17.33;;;;;;;;;;4989036;28;20195;-68
2023/04/21 02:58:35;;;;;;;30.27;16.93;;;;;;;;;;4989972;28;20180;-71
2023/04/21 03:01:02;;;;;;;33.03;18.63;;;;;;;;;;4987378;28;20179;-68
2023/04/21 03:03:27;;;;;;;29.83;17.37;;;;;;;;;;4994887;28;20206;-69
2023/04/21 03:05:59;;;;;;;30.30;17.07;;;;;;;;;;4989532;28;20183;-69
2023/04/21 03:08:24;;;;;;;29.80;17.27;;;;;;;;;;4996422;28;20176;-69
2023/04/21 03:10:50;;;;;;;35.60;16.80;;;;;;;;;;4996680;28;20186;-69
2023/04/21 03:13:16;;;;;;;33.90;18.60;;;;;;;;;;5016286;23;20611;-79
2023/04/21 03:15:41;;;;;;;36.70;18.23;;;;;;;;;;5010229;28;20217;-80
2023/04/21 03:18:06;;;;;;;35.73;18.37;;;;;;;;;;5026576;28;20197;-79
2023/04/21 03:20:32;;;;;;;28.83;15.93;;;;;;;;;;5022877;28;20206;-80
2023/04/21 03:22:58;;;;;;;34.23;17.53;;;;;;;;;;5007903;28;20570;-79
2023/04/21 03:25:23;;;;;;;35.40;18.30;;;;;;;;;;5007397;28;21104;-80
2023/04/21 03:27:48;;;;;;;36.83;19.43;;;;;;;;;;5016770;28;20262;-81
2023/04/21 03:30:13;;;;;;;35.20;18.10;;;;;;;;;;4993756;28;20203;-81
2023/04/21 03:32:39;;;;;;;34.83;19.37;;;;;;;;;;5011039;28;20429;-80
2023/04/21 03:35:04;;;;;;;34.73;17.97;;;;;;;;;;5014280;28;20171;-81
2023/04/21 03:37:30;;;;;;;32.37;18.57;;;;;;;;;;5007726;28;20191;-81
2023/04/21 03:39:55;;;;;;;31.27;17.93;;;;;;;;;;5009674;28;20703;-79
2023/04/21 03:42:20;;;;;;;34.27;18.20;;;;;;;;;;4997230;28;20176;-80
2023/04/21 03:44:46;;;;;;;37.00;20.30;;;;;;;;;;4992250;28;20752;-81
2023/04/21 03:47:11;;;;;;;34.87;18.17;;;;;;;;;;4998316;28;20211;-81
2023/04/21 03:49:36;;;;;;;35.10;18.50;;;;;;;;;;5011805;28;20647;-80
2023/04/21 03:52:01;;;;;;;33.13;18.33;;;;;;;;;;5016575;28;20183;-80
2023/04/21 03:54:27;;;;;;;38.03;19.40;;;;;;;;;;5018519;28;20207;-81
2023/04/21 03:56:52;;;;;;;36.77;18.53;;;;;;;;;;5012962;28;20206;-80
2023/04/21 03:59:17;;;;;;;34.03;18.27;;;;;;;;;;5013662;28;20171;-81
2023/04/21 04:01:42;;;;;;;40.90;21.10;;;;;;;;;;5013137;28;20172;-79
2023/04/21 04:04:08;;;;;;;37.37;20.07;;;;;;;;;;4988097;28;20576;-79
2023/04/21 04:06:34;;;;;;;37.20;20.30;;;;;;;;;;5009532;28;20228;-79
2023/04/21 04:09:01;;;;;;;39.07;21.07;;;;;;;;;;4993532;28;20175;-79
2023/04/21 04:11:26;;;;;;;35.47;20.87;;;;;;;;;;4997196;28;20237;-80
2023/04/21 04:13:51;;;;;;;38.53;19.73;;;;;;;;;;4992721;28;20235;-81
2023/04/21 04:16:17;;;;;;;37.57;20.03;;;;;;;;;;5014759;28;20572;-81
2023/04/21 04:18:44;;;;;;;39.47;20.40;;;;;;;;;;4993113;28;20182;-80
2023/04/21 04:21:09;;;;;;;38.27;20.97;;;;;;;;;;5004280;28;20267;-80
2023/04/21 04:23:35;;;;;;;42.30;20.40;;;;;;;;;;5011439;28;20213;-80
2023/04/21 04:26:03;;;;;;;34.67;19.20;;;;;;;;;;4991164;28;20194;-81
2023/04/21 04:28:29;;;;;;;40.93;21.37;;;;;;;;;;5014136;28;20179;-80
2023/04/21 04:30:54;;;;;;;40.40;19.73;;;;;;;;;;4995803;28;20187;-80
2023/04/21 04:33:20;;;;;;;38.50;20.17;;;;;;;;;;5009969;28;20787;-80
2023/04/21 04:35:46;;;;;;;39.73;21.60;;;;;;;;;;5006304;28;20196;-81
2023/04/21 04:38:13;;;;;;;39.37;21.10;;;;;;;;;;4994503;28;20234;-81
2023/04/21 04:40:38;;;;;;;38.33;19.43;;;;;;;;;;5012026;28;20179;-80
2023/04/21 04:43:04;;;;;;;36.47;20.23;;;;;;;;;;5003025;28;20294;-81
2023/04/21 04:45:31;;;;;;;39.03;20.27;;;;;;;;;;5019936;28;20190;-82
2023/04/21 04:47:57;;;;;;;35.33;19.17;;;;;;;;;;5008182;28;20258;-80
2023/04/21 04:50:23;;;;;;;41.83;21.87;;;;;;;;;;5019267;28;20577;-80
2023/04/21 04:52:48;;;;;;;34.87;19.77;;;;;;;;;;5014412;28;20183;-81
2023/04/21 04:55:13;;;;;;;37.50;21.50;;;;;;;;;;5023988;28;20190;-82
2023/04/21 04:57:39;;;;;;;38.63;20.93;;;;;;;;;;5020324;28;20537;-81
2023/04/21 05:00:06;;;;;;;41.93;21.33;;;;;;;;;;5017661;28;20186;-80
2023/04/21 05:02:31;;;;;;;42.13;22.47;;;;;;;;;;4997620;28;20179;-79
2023/04/21 05:04:56;;;;;;;40.70;22.03;;;;;;;;;;5000437;28;20206;-80
2023/04/21 05:07:21;;;;;;;40.80;22.27;;;;;;;;;;5011706;28;20206;-81
2023/04/21 05:09:47;;;;;;;40.57;21.67;;;;;;;;;;5016899;28;20227;-80
2023/04/21 05:12:12;;;;;;;41.13;21.57;;;;;;;;;;4998693;28;20246;-80
2023/04/21 05:14:37;;;;;;;41.47;22.80;;;;;;;;;;5017003;28;20211;-81
2023/04/21 05:17:02;;;;;;;41.43;23.03;;;;;;;;;;5000624;28;20271;-81
2023/04/21 05:19:27;;;;;;;44.53;22.20;;;;;;;;;;5003230;28;21012;-82
2023/04/21 05:21:57;;;;;;;40.57;21.70;;;;;;;;;;5012053;28;20172;-82
2023/04/21 05:24:23;;;;;;;46.30;24.00;;;;;;;;;;5028606;28;20204;-82
2023/04/21 05:26:48;;;;;;;44.07;22.43;;;;;;;;;;5010566;28;20179;-81
2023/04/21 05:29:13;;;;;;;38.63;23.23;;;;;;;;;;5027132;28;20175;-82
2023/04/21 05:31:38;;;;;;;39.43;23.13;;;;;;;;;;5011252;28;20247;-83
2023/04/21 05:34:03;;;;;;;42.40;24.07;;;;;;;;;;5018531;28;20268;-82
2023/04/21 05:36:29;;;;;;;43.47;23.67;;;;;;;;;;4994155;28;20580;-81
2023/04/21 05:38:54;;;;;;;43.03;24.37;;;;;;;;;;5016825;28;20179;-81
2023/04/21 05:41:21;;;;;;;43.40;24.47;;;;;;;;;;5007920;28;20656;-82
2023/04/21 05:43:46;;;;;;;45.93;24.57;;;;;;;;;;5017990;28;20190;-81
2023/04/21 05:46:11;;;;;;;45.43;23.60;;;;;;;;;;5019323;28;20188;-81
2023/04/21 05:48:37;;;;;;;45.60;24.20;;;;;;;;;;5012676;28;20179;-81
2023/04/21 05:51:09;;;;;;;42.47;23.97;;;;;;;;;;5017999;28;20186;-80
2023/04/21 05:53:35;;;;;;;41.30;21.47;;;;;;;;;;5010310;28;20297;-81
2023/04/21 05:56:00;;;;;;;43.00;23.27;;;;;;;;;;4999838;28;20233;-80
2023/04/21 05:58:25;;;;;;;39.60;22.97;;;;;;;;;;5017558;28;20190;-80
2023/04/21 06:00:50;;;;;;;39.43;21.77;;;;;;;;;;5000046;28;20183;-81
2023/04/21 06:03:15;;;;;;;39.47;22.60;;;;;;;;;;5000311;28;20200;-81
2023/04/21 06:05:41;;;;;;;40.90;21.97;;;;;;;;;;4995724;28;20648;-80
2023/04/21 06:08:06;;;;;;;39.60;22.87;;;;;;;;;;5008587;28;20169;-80
2023/04/21 06:10:31;;;;;;;41.80;22.80;;;;;;;;;;5028105;28;20176;-84
2023/04/21 06:12:56;;;;;;;42.53;22.10;;;;;;;;;;5022431;28;20203;-80
2023/04/21 06:15:22;;;;;;;36.30;21.30;;;;;;;;;;5004563;28;20183;-82
2023/04/21 06:17:51;;;;;;;36.60;21.20;;;;;;;;;;5010684;28;20229;-82
2023/04/21 06:20:16;;;;;;;37.47;20.67;;;;;;;;;;5013494;28;20175;-82
2023/04/21 06:22:42;;;;;;;38.17;20.77;;;;;;;;;;5002696;28;20271;-81
2023/04/21 06:25:07;;;;;;;36.97;21.47;;;;;;;;;;5010397;28;20217;-81
2023/04/21 06:27:32;;;;;;;34.77;20.83;;;;;;;;;;5016407;28;20179;-81
2023/04/21 06:29:57;;;;;;;36.63;21.13;;;;;;;;;;5003527;28;20591;-81
2023/04/21 06:32:22;;;;;;;35.37;21.07;;;;;;;;;;5015351;28;20196;-80
2023/04/21 06:34:48;;;;;;;37.10;20.63;;;;;;;;;;5010533;28;20200;-81
2023/04/21 06:37:13;;;;;;;39.17;22.47;;;;;;;;;;4987299;28;20249;-81
2023/04/21 06:39:38;;;;;;;29.93;18.93;;;;;;;;;;4981394;28;20181;-81
2023/04/21 06:42:03;;;;;;;31.93;19.90;;;;;;;;;;4998692;28;20176;-81
2023/04/21 06:44:31;;;;;;;35.47;21.60;;;;;;;;;;5003994;28;20200;-82
2023/04/21 06:46:56;;;;;;;36.00;21.80;;;;;;;;;;5005297;28;20186;-81
2023/04/21 06:49:21;;;;;;;38.37;21.23;;;;;;;;;;4994796;28;20187;-83
2023/04/21 06:51:46;;;;;;;33.27;22.03;;;;;;;;;;4995743;28;20175;-81
2023/04/21 06:54:12;;;;;;;32.47;19.90;;;;;;;;;;4999299;28;20202;-81
2023/04/21 06:56:37;;;;;;;33.63;20.17;;;;;;;;;;5002363;28;20657;-81
2023/04/21 06:59:02;;;;;;;32.47;18.83;;;;;;;;;;5000025;28;20170;-81
2023/04/21 07:01:27;;;;;;;31.90;18.63;;;;;;;;;;4989587;28;20187;-81
2023/04/21 07:03:52;;;;;;;31.13;18.87;;;;;;;;;;5006091;28;20310;-81
2023/04/21 07:06:18;;;;;;;30.00;19.53;;;;;;;;;;5000378;28;20254;-81
2023/04/21 07:08:43;;;;;;;33.30;19.93;;;;;;;;;;5012669;28;20557;-82
2023/04/21 07:11:08;;;;;;;33.77;21.17;;;;;;;;;;5000997;28;20198;-82
2023/04/21 07:13:33;;;;;;;31.93;20.10;;;;;;;;;;5001272;28;20712;-81
2023/04/21 07:15:59;;;;;;;31.43;19.60;;;;;;;;;;5003464;28;20202;-81
2023/04/21 07:18:24;;;;;;;29.53;19.20;;;;;;;;;;5006276;28;20242;-81
2023/04/21 07:20:49;;;;;;;35.00;19.58;;;;;;;;;;5001289;28;20175;-81
2023/04/21 07:23:15;;;;;;;29.63;19.23;;;;;;;;;;4991828;28;20588;-81
2023/04/21 07:25:40;;;;;;;29.10;19.50;;;;;;;;;;5011616;28;20214;-81
2023/04/21 07:28:05;;;;;;;31.40;19.20;;;;;;;;;;5004332;28;20549;-81
2023/04/21 07:30:30;;;;;;;26.85;18.10;;;;;;;;;;4994947;28;20180;-81
2023/04/21 07:32:56;;;;;;;28.25;18.63;;;;;;;;;;5022558;28;20259;-80
2023/04/21 07:35:21;;;;;;;28.35;17.77;;;;;;;;;;4999288;28;20186;-81
2023/04/21 07:37:46;;;;;;;25.35;17.60;;;;;;;;;;5007949;28;20222;-82
2023/04/21 07:40:12;;;;;;;28.50;19.10;;;;;;;;;;5017661;28;20255;-83
2023/04/21 07:42:38;;;;;;;28.58;18.23;;;;;;;;;;5021954;28;20179;-81
2023/04/21 07:45:03;;;;;;;28.90;18.77;;;;;;;;;;4994002;28;20180;-81
2023/04/21 07:47:28;;;;;;;27.63;17.92;;;;;;;;;;4986107;28;20250;-80
2023/04/21 07:49:54;;;;;;;28.90;19.30;;;;;;;;;;4985460;28;20278;-80
2023/04/21 07:52:19;;;;;;;30.13;19.98;;;;;;;;;;4983614;28;20234;-80
2023/04/21 07:54:44;;;;;;;29.83;19.02;;;;;;;;;;5002650;28;20286;-80
2023/04/21 07:57:09;;;;;;;32.10;20.45;;;;;;;;;;4980996;28;20238;-82
2023/04/21 07:59:35;;;;;;;28.40;19.20;;;;;;;;;;4988834;28;20276;-80
2023/04/21 08:02:00;;;;;;;32.70;18.40;;;;;;;;;;5003367;28;20175;-80
2023/04/21 08:04:26;;;;;;;30.50;18.55;;;;;;;;;;5004445;28;20219;-80
2023/04/21 08:06:51;;;;;;;29.42;19.67;;;;;;;;;;5001481;28;20183;-81
2023/04/21 08:09:16;;;;;;;26.45;19.05;;;;;;;;;;4993458;28;20708;-81
2023/04/21 08:11:41;;;;;;;28.00;18.88;;;;;;;;;;4996154;28;20186;-80
2023/04/21 08:14:09;;;;;;;28.55;18.45;;;;;;;;;;4996540;28;20222;-80
2023/04/21 08:16:34;;;;;;;28.27;18.67;;;;;;;;;;5008155;28;20278;-79
2023/04/21 08:19:00;;;;;;;28.65;18.20;;;;;;;;;;5017339;28;20195;-81
2023/04/21 08:21:25;;;;;;;29.50;18.67;;;;;;;;;;5003960;28;20175;-81
2023/04/21 08:23:50;;;;;;;28.10;19.02;;;;;;;;;;5018373;28;20199;-81
2023/04/21 08:26:17;;;;;;;27.33;18.20;;;;;;;;;;5015598;28;20190;-81
2023/04/21 08:28:43;;;;;;;28.90;19.13;;;;;;;;;;5025960;28;20261;-80
2023/04/21 08:31:08;;;;;;;27.95;18.75;;;;;;;;;;5003403;28;20176;-80
2023/04/21 08:33:33;;;;;;;27.88;18.85;;;;;;;;;;5014838;28;20215;-81
2023/04/21 08:35:58;;;;;;;27.08;19.02;;;;;;;;;;4998980;28;20211;-81
2023/04/21 08:38:24;;;;;;;27.80;18.42;;;;;;;;;;5014027;28;20238;-81
2023/04/21 08:40:49;;;;;;;27.65;19.30;;;;;;;;;;4987606;28;20193;-81
2023/04/21 08:43:14;;;;;;;25.95;18.27;;;;;;;;;;5012865;28;20195;-81
2023/04/21 08:45:40;;;;;;;27.83;18.35;;;;;;;;;;4982487;28;20258;-82
2023/04/21 08:48:05;;;;;;;24.55;17.08;;;;;;;;;;5014522;28;20175;-80
2023/04/21 08:50:31;;;;;;;26.45;18.20;;;;;;;;;;5007654;28;20172;-81
2023/04/21 08:52:57;;;;;;;29.95;19.90;;;;;;;;;;4992788;28;20188;-81
2023/04/21 08:55:27;;;;;;;27.40;18.58;;;;;;;;;;4995036;28;20712;-81
2023/04/21 08:57:52;;;;;;;26.52;18.63;;;;;;;;;;5014410;28;20262;-81
2023/04/21 09:00:18;;;;;;;25.73;17.27;;;;;;;;;;4982402;28;20218;-81
2023/04/21 09:02:54;;;;;;;24.70;17.35;;;;;;;;;;5015591;28;20152;-81
2023/04/21 09:05:23;;;;;;;23.90;17.13;;;;;;;;;;4996703;28;20159;-82
2023/04/21 09:07:49;;;;;;;21.33;16.52;;;;;;;;;;4987983;28;20676;-81
2023/04/21 09:10:20;;;;;;;21.88;16.85;;;;;;;;;;4990266;28;20184;-81
2023/04/21 09:12:49;;;;;;;22.75;16.25;;;;;;;;;;5005093;28;20171;-80
2023/04/21 09:15:14;;;;;;;22.00;16.35;;;;;;;;;;5017314;23;20235;-66
2023/04/21 09:17:40;;;;;;;20.70;15.23;;;;;;;;;;5005174;28;20226;-67
2023/04/21 09:20:14;;;;;;;23.05;16.30;;;;;;;;;;5011975;28;20221;-67
2023/04/21 09:22:40;;;;;;;22.80;16.38;;;;;;;;;;5007496;28;20229;-67
2023/04/21 09:25:05;;;;;;;22.98;15.77;;;;;;;;;;5004109;28;20412;-67
2023/04/21 09:27:30;;;;;;;24.83;17.20;;;;;;;;;;4987314;28;20617;-67
2023/04/21 09:30:01;;;;;;;23.40;15.80;;;;;;;;;;4996221;28;20184;-67
2023/04/21 09:32:26;;;;;;;22.38;15.70;;;;;;;;;;5000762;28;20738;-69
2023/04/21 09:34:51;;;;;;;22.20;16.23;;;;;;;;;;5004705;28;20508;-69
2023/04/21 09:37:17;;;;;;;23.48;16.73;;;;;;;;;;4990376;28;20207;-66
2023/04/21 09:39:45;;;;;;;21.73;16.20;;;;;;;;;;5006192;28;20167;-67
2023/04/21 09:42:10;;;;;;;20.13;15.18;;;;;;;;;;4994577;28;20183;-67
2023/04/21 09:44:37;;;;;;;20.77;15.20;;;;;;;;;;5011876;28;20198;-67
2023/04/21 09:47:03;;;;;;;24.20;14.82;;;;;;;;;;4985764;28;20175;-67
2023/04/21 09:49:29;;;;;;;21.08;15.00;;;;;;;;;;5005302;28;20625;-67
2023/04/21 09:51:55;;;;;;;22.73;15.90;;;;;;;;;;5006029;28;20182;-67
2023/04/21 09:54:23;;;;;;;22.10;15.80;;;;;;;;;;5006391;28;20234;-67
2023/04/21 09:56:49;;;;;;;21.13;15.52;;;;;;;;;;5002563;28;20224;-67
2023/04/21 09:59:18;;;;;;;22.58;15.32;;;;;;;;;;5006140;28;20193;-68
2023/04/21 10:01:44;;;;;;;20.42;14.60;;;;;;;;;;5003540;28;20175;-68
2023/04/21 10:04:10;;;;;;;17.70;13.65;;;;;;;;;;5010340;28;20191;-67
2023/04/21 10:06:35;;;;;;;19.55;14.30;;;;;;;;;;5011839;28;20270;-67
2023/04/21 10:09:02;;;;;;;21.20;15.32;;;;;;;;;;5011468;28;20183;-67
2023/04/21 10:11:28;;;;;;;18.90;14.38;;;;;;;;;;5001130;28;20186;-67
2023/04/21 10:13:53;;;;;;;18.27;14.35;;;;;;;;;;5010645;28;20211;-67
2023/04/21 10:16:20;;;;;;;20.58;15.75;;;;;;;;;;5012263;28;20786;-67
2023/04/21 10:18:45;;;;;;;19.73;14.00;;;;;;;;;;4994696;28;20201;-67
2023/04/21 10:21:11;;;;;;;20.02;13.60;;;;;;;;;;5007041;28;20645;-67
2023/04/21 10:23:46;;;;;;;18.83;13.43;;;;;;;;;;5006422;28;20699;-68
2023/04/21 10:26:13;;;;;;;19.65;13.57;;;;;;;;;;5010561;28;20198;-67
2023/04/21 10:28:39;;;;;;;20.88;14.23;;;;;;;;;;5010388;28;20257;-68
2023/04/21 10:31:18;;;;;;;19.55;13.52;;;;;;;;;;5007558;28;20310;-67
2023/04/21 10:34:02;;;;;;;17.70;12.07;;;;;;;;;;5001533;28;20195;-67
2023/04/21 10:36:28;;;;;;;16.10;13.02;;;;;;;;;;5009125;28;20214;-68
2023/04/21 10:38:59;;;;;;;17.48;13.57;;;;;;;;;;5011750;28;20216;-67
2023/04/21 10:41:28;;;;;;;14.98;11.27;;;;;;;;;;4988411;28;20617;-68
2023/04/21 10:44:12;;;;;;;15.43;11.98;;;;;;;;;;5011598;28;20202;-68
2023/04/21 10:46:38;;;;;;;17.67;12.35;;;;;;;;;;4989073;28;20528;-68
2023/04/21 10:49:07;;;;;;;15.75;12.65;;;;;;;;;;4998829;28;20182;-67
2023/04/21 10:51:32;;;;;;;17.67;13.35;;;;;;;;;;5011730;28;20183;-67
2023/04/21 10:53:57;;;;;;;15.43;12.80;;;;;;;;;;5010098;28;20195;-68
2023/04/21 10:56:23;;;;;;;20.27;13.73;;;;;;;;;;5007917;28;20199;-68
2023/04/21 10:58:49;;;;;;;15.75;11.63;;;;;;;;;;5009781;28;20198;-67
2023/04/21 11:01:15;;;;;;;18.05;14.00;;;;;;;;;;5009454;28;20175;-67
2023/04/21 11:03:40;;;;;;;17.02;12.32;;;;;;;;;;5007000;28;20289;-67
2023/04/21 11:06:16;;;;;;;15.82;12.70;;;;;;;;;;5005656;28;20210;-67
2023/04/21 11:08:54;;;;;;;14.35;11.15;;;;;;;;;;5010758;28;20261;-67
2023/04/21 11:11:23;;;;;;;14.45;11.15;;;;;;;;;;5002526;28;20209;-67
2023/04/21 11:13:48;;;;;;;17.92;12.20;;;;;;;;;;5000574;28;20230;-68
2023/04/21 11:16:13;;;;;;;16.40;12.53;;;;;;;;;;5011035;28;20222;-68
2023/04/21 11:18:42;;;;;;;16.90;11.73;;;;;;;;;;5011181;28;21059;-67
2023/04/21 11:21:08;;;;;;;19.70;12.20;;;;;;;;;;5000930;28;20182;-67
2023/04/21 11:23:34;;;;;;;15.13;11.25;;;;;;;;;;5006215;28;20625;-67
2023/04/21 11:26:00;;;;;;;15.57;11.45;;;;;;;;;;4988170;28;20182;-67
2023/04/21 11:28:25;;;;;;;19.30;12.52;;;;;;;;;;5012390;28;20591;-68
2023/04/21 11:30:50;;;;;;;15.27;11.07;;;;;;;;;;4996905;28;20238;-67
2023/04/21 11:33:15;;;;;;;13.90;11.27;;;;;;;;;;5015091;28;20416;-67
2023/04/21 11:35:41;;;;;;;15.27;11.30;;;;;;;;;;5010016;28;20464;-67
2023/04/21 11:38:06;;;;;;;14.57;11.88;;;;;;;;;;5007516;28;20302;-68
2023/04/21 11:40:43;;;;;;;15.40;11.10;;;;;;;;;;5004823;28;20171;-67
2023/04/21 11:43:08;;;;;;;12.88;10.20;;;;;;;;;;5014797;28;20267;-68
2023/04/21 11:45:34;;;;;;;12.98;9.90;;;;;;;;;;5014957;28;20262;-68
2023/04/21 11:48:12;;;;;;;12.70;8.87;;;;;;;;;;5013537;28;20171;-68
2023/04/21 11:50:37;;;;;;;12.43;9.07;;;;;;;;;;5014549;28;20495;-67
2023/04/21 11:53:03;;;;;;;13.15;8.85;;;;;;;;;;5012069;28;20617;-68
2023/04/21 11:55:28;;;;;;;14.57;10.75;;;;;;;;;;5001360;28;20207;-67
2023/04/21 11:57:56;;;;;;;11.70;9.98;;;;;;;;;;5009436;28;20214;-67
2023/04/21 12:00:21;;;;;;;18.02;11.57;;;;;;;;;;5000003;28;20172;-67
2023/04/21 12:02:53;;;;;;;12.95;10.57;;;;;;;;;;5011485;28;20178;-68
2023/04/21 12:05:18;;;;;;;14.43;10.68;;;;;;;;;;5014316;28;20191;-67
2023/04/21 12:07:45;;;;;;;15.20;11.30;;;;;;;;;;5013408;28;20548;-67
2023/04/21 12:10:11;;;;;;;13.75;11.10;;;;;;;;;;5008489;28;20436;-68
2023/04/21 12:12:37;;;;;;;13.82;10.40;;;;;;;;;;5013811;28;20206;-68
2023/04/21 12:15:03;;;;;;;14.48;11.45;;;;;;;;;;5013490;28;20202;-68
2023/04/21 12:17:34;;;;;;;16.40;12.07;;;;;;;;;;5011084;28;20680;-67
2023/04/21 12:20:04;;;;;;;13.52;10.63;;;;;;;;;;5013670;28;20175;-67
2023/04/21 12:22:29;;;;;;;14.55;10.70;;;;;;;;;;5002061;28;20655;-67
2023/04/21 12:24:54;;;;;;;13.88;10.60;;;;;;;;;;5007547;28;20203;-67
2023/04/21 12:27:20;;;;;;;14.17;9.77;;;;;;;;;;5011733;28;20289;-67
2023/04/21 12:29:45;;;;;;;10.88;8.93;;;;;;;;;;4984864;28;20793;-67
2023/04/21 12:32:10;;;;;;;12.80;9.80;;;;;;;;;;5002174;28;20222;-67
2023/04/21 12:34:36;;;;;;;13.00;10.38;;;;;;;;;;4999612;28;20196;-67
2023/04/21 12:37:02;;;;;;;13.88;11.27;;;;;;;;;;5008294;28;20175;-67
2023/04/21 12:39:28;;;;;;;14.85;10.70;;;;;;;;;;5013812;28;20179;-68
2023/04/21 12:41:53;;;;;;;13.50;9.90;;;;;;;;;;5014174;28;20167;-67
2023/04/21 12:44:18;;;;;;;13.25;10.13;;;;;;;;;;5014035;28;20279;-67
2023/04/21 12:46:43;;;;;;;13.77;10.17;;;;;;;;;;5013636;28;20633;-67
2023/04/21 12:49:09;;;;;;;15.48;10.75;;;;;;;;;;4994996;28;20638;-67
2023/04/21 12:51:35;;;;;;;14.55;10.25;;;;;;;;;;5013057;28;20171;-67
2023/04/21 12:54:00;;;;;;;13.75;9.88;;;;;;;;;;5014203;28;20194;-67
2023/04/21 12:56:25;;;;;;;11.98;10.40;;;;;;;;;;5013624;28;20660;-67
2023/04/21 12:58:51;;;;;;;14.95;10.77;;;;;;;;;;5013976;28;20174;-67
2023/04/21 13:01:16;;;;;;;16.15;12.27;;;;;;;;;;5013549;28;20171;-68
2023/04/21 13:03:41;;;;;;;18.20;11.77;;;;;;;;;;5013661;28;20195;-67
2023/04/21 13:06:07;;;;;;;16.10;11.32;;;;;;;;;;4993721;28;20234;-68
2023/04/21 13:08:32;;;;;;;16.08;11.82;;;;;;;;;;4995951;28;20174;-67
2023/04/21 13:10:58;;;;;;;14.45;10.25;;;;;;;;;;5010638;28;20171;-67
2023/04/21 13:13:23;;;;;;;13.00;10.15;;;;;;;;;;5013238;28;20596;-67
2023/04/21 13:15:48;;;;;;;15.27;11.63;;;;;;;;;;5013426;28;20166;-68
2023/04/21 13:18:13;;;;;;;14.07;10.32;;;;;;;;;;5013398;28;20549;-68
2023/04/21 13:20:39;;;;;;;17.23;11.15;;;;;;;;;;5012243;28;20587;-67
2023/04/21 13:23:04;;;;;;;14.63;10.27;;;;;;;;;;5011902;28;20183;-67
2023/04/21 13:25:29;;;;;;;13.90;11.65;;;;;;;;;;4995565;28;20171;-67
2023/04/21 13:27:54;;;;;;;15.48;11.57;;;;;;;;;;4995676;28;20583;-67
2023/04/21 13:30:20;;;;;;;18.83;11.23;;;;;;;;;;5013348;28;20226;-67
2023/04/21 13:32:45;;;;;;;14.73;11.13;;;;;;;;;;5003420;28;20184;-67
2023/04/21 13:35:10;;;;;;;17.85;11.88;;;;;;;;;;4991041;28;20210;-67
2023/04/21 13:37:36;;;;;;;15.25;11.00;;;;;;;;;;5003959;28;20182;-67
2023/04/21 13:40:03;;;;;;;19.35;11.45;;;;;;;;;;5012723;28;20193;-67
2023/04/21 13:42:28;;;;;;;17.92;11.43;;;;;;;;;;4993296;28;20566;-68
2023/04/21 13:44:53;;;;;;;15.60;11.25;;;;;;;;;;4993314;28;20195;-67
2023/04/21 13:47:18;;;;;;;15.93;11.15;;;;;;;;;;5003507;28;20203;-67
2023/04/21 13:49:44;;;;;;;16.30;13.13;;;;;;;;;;5003015;28;20176;-67
2023/04/21 13:52:10;;;;;;;20.55;12.77;;;;;;;;;;4999133;28;20220;-67
2023/04/21 13:54:35;;;;;;;19.60;12.98;;;;;;;;;;5010725;28;20190;-67
2023/04/21 13:57:00;;;;;;;16.38;12.45;;;;;;;;;;5012738;28;20253;-67
2023/04/21 13:59:26;;;;;;;18.02;12.25;;;;;;;;;;5012090;28;20198;-67
2023/04/21 14:01:51;;;;;;;17.73;12.63;;;;;;;;;;5012655;28;20203;-67
2023/04/21 14:04:17;;;;;;;20.23;13.67;;;;;;;;;;5012383;28;20225;-67
2023/04/21 14:06:42;;;;;;;17.15;12.27;;;;;;;;;;5003862;28;20500;-67
2023/04/21 14:09:08;;;;;;;19.98;13.73;;;;;;;;;;5006032;28;20214;-67
2023/04/21 14:11:33;;;;;;;18.73;12.80;;;;;;;;;;4991051;28;20200;-67